BLUE21 LIPQ-LIPZ
Flight info
| Callsign | BLUE21 |
|---|---|
| Flight time | 0h 29m |
| Altitude | 13000 |
| Route | ROSKA DCT BASOG |
| Aircraft | B38M/M-SDE1FGHILORVWXY/HB1 |
Departure
| Time | 2026-04-29 20:22 |
|---|---|
| Airport | Trieste Airport (LIPQ) |
Arrival
| Time | 2026-04-29 20:52 |
|---|---|
| Airport | Venice Marco Polo Airport (LIPZ) |
| Time | Latitude | Longitude | Altitude | Speed | Heading |
|---|---|---|---|---|---|
| 2026-04-29 20:00 | 45.82327 | 13.48497 | 48 ft | 0 kts | 215° |
| 2026-04-29 20:19 | 45.82315 | 13.48474 | 47 ft | 7 kts | 221° |
| 2026-04-29 20:19 | 45.82281 | 13.48492 | 48 ft | 7 kts | 108° |
| 2026-04-29 20:20 | 45.82321 | 13.48564 | 48 ft | 13 kts | 20° |
| 2026-04-29 20:20 | 45.82424 | 13.48569 | 48 ft | 17 kts | 359° |
| 2026-04-29 20:20 | 45.82559 | 13.48567 | 48 ft | 21 kts | 359° |
| 2026-04-29 20:20 | 45.82714 | 13.48573 | 47 ft | 23 kts | 352° |
| 2026-04-29 20:21 | 45.82776 | 13.48473 | 46 ft | 0 kts | 274° |
| 2026-04-29 20:21 | 45.82776 | 13.48464 | 46 ft | 9 kts | 275° |
| 2026-04-29 20:22 | 45.82777 | 13.47987 | 46 ft | 91 kts | 270° |
| 2026-04-29 20:22 | 45.82783 | 13.46854 | 48 ft | 157 kts | 271° |
| 2026-04-29 20:22 | 45.82813 | 13.45037 | 281 ft | 202 kts | 270° |
| 2026-04-29 20:22 | 45.82807 | 13.42991 | 1309 ft | 201 kts | 271° |
| 2026-04-29 20:23 | 45.82808 | 13.40988 | 2212 ft | 208 kts | 272° |
| 2026-04-29 20:23 | 45.82817 | 13.38809 | 2655 ft | 229 kts | 271° |
| 2026-04-29 20:23 | 45.82825 | 13.36395 | 3018 ft | 258 kts | 271° |
| 2026-04-29 20:23 | 45.82832 | 13.33798 | 3898 ft | 260 kts | 271° |
| 2026-04-29 20:24 | 45.82846 | 13.31163 | 4593 ft | 275 kts | 274° |
| 2026-04-29 20:24 | 45.83264 | 13.28480 | 5453 ft | 275 kts | 299° |
| 2026-04-29 20:24 | 45.84486 | 13.26444 | 6409 ft | 271 kts | 329° |
| 2026-04-29 20:24 | 45.86220 | 13.25456 | 7266 ft | 269 kts | 354° |
| 2026-04-29 20:25 | 45.88074 | 13.25611 | 8118 ft | 269 kts | 18° |
| 2026-04-29 20:25 | 45.89723 | 13.26878 | 8964 ft | 272 kts | 41° |
| 2026-04-29 20:25 | 45.90842 | 13.29083 | 9763 ft | 280 kts | 66° |
| 2026-04-29 20:25 | 45.91185 | 13.31859 | 10448 ft | 291 kts | 92° |
| 2026-04-29 20:26 | 45.90592 | 13.34726 | 10826 ft | 313 kts | 121° |
| 2026-04-29 20:26 | 45.89168 | 13.37202 | 11204 ft | 332 kts | 130° |
| 2026-04-29 20:26 | 45.87675 | 13.39791 | 11535 ft | 349 kts | 128° |
| 2026-04-29 20:26 | 45.86111 | 13.42556 | 12042 ft | 361 kts | 129° |
| 2026-04-29 20:27 | 45.84510 | 13.45356 | 12800 ft | 365 kts | 129° |
| 2026-04-29 20:27 | 45.83433 | 13.47230 | 13256 ft | 369 kts | 129° |
| 2026-04-29 20:27 | 45.80914 | 13.50600 | 14123 ft | 375 kts | 152° |
| 2026-04-29 20:27 | 45.78476 | 13.51905 | 14634 ft | 376 kts | 173° |
| 2026-04-29 20:28 | 45.75898 | 13.51915 | 14798 ft | 369 kts | 195° |
| 2026-04-29 20:28 | 45.73534 | 13.50626 | 14964 ft | 361 kts | 216° |
| 2026-04-29 20:28 | 45.71676 | 13.48325 | 15086 ft | 361 kts | 234° |
| 2026-04-29 20:28 | 45.70387 | 13.45197 | 15087 ft | 371 kts | 251° |
| 2026-04-29 20:29 | 45.69783 | 13.41567 | 15052 ft | 383 kts | 266° |
| 2026-04-29 20:29 | 45.69711 | 13.37726 | 15063 ft | 389 kts | 271° |
| 2026-04-29 20:29 | 45.69732 | 13.33822 | 15070 ft | 394 kts | 272° |
| 2026-04-29 20:29 | 45.69635 | 13.29903 | 15082 ft | 396 kts | 262° |
| 2026-04-29 20:30 | 45.68753 | 13.26164 | 15115 ft | 400 kts | 244° |
| 2026-04-29 20:30 | 45.67145 | 13.22896 | 15119 ft | 404 kts | 232° |
| 2026-04-29 20:30 | 45.65302 | 13.19847 | 15110 ft | 405 kts | 231° |
| 2026-04-29 20:30 | 45.63283 | 13.17108 | 15095 ft | 409 kts | 218° |
| 2026-04-29 20:31 | 45.60948 | 13.14779 | 15107 ft | 410 kts | 218° |
| 2026-04-29 20:31 | 45.58606 | 13.12458 | 15102 ft | 410 kts | 218° |
| 2026-04-29 20:31 | 45.56251 | 13.10151 | 15106 ft | 410 kts | 217° |
| 2026-04-29 20:31 | 45.53897 | 13.07860 | 15104 ft | 410 kts | 217° |
| 2026-04-29 20:32 | 45.51536 | 13.05571 | 15099 ft | 410 kts | 217° |
| 2026-04-29 20:32 | 45.49178 | 13.03288 | 15100 ft | 410 kts | 217° |
| 2026-04-29 20:32 | 45.46814 | 13.01002 | 15097 ft | 410 kts | 217° |
| 2026-04-29 20:32 | 45.45252 | 12.99493 | 15101 ft | 410 kts | 217° |
| 2026-04-29 20:33 | 45.42087 | 12.96439 | 15078 ft | 410 kts | 218° |
| 2026-04-29 20:33 | 45.39755 | 12.94194 | 15089 ft | 409 kts | 217° |
| 2026-04-29 20:33 | 45.37392 | 12.91919 | 15091 ft | 409 kts | 217° |
| 2026-04-29 20:33 | 45.35028 | 12.89645 | 15084 ft | 410 kts | 217° |
| 2026-04-29 20:34 | 45.33464 | 12.88143 | 15085 ft | 409 kts | 218° |
| 2026-04-29 20:34 | 45.31290 | 12.85594 | 15061 ft | 402 kts | 232° |
| 2026-04-29 20:34 | 45.29638 | 12.82406 | 15052 ft | 399 kts | 237° |
| 2026-04-29 20:34 | 45.28046 | 12.79230 | 14745 ft | 390 kts | 237° |
| 2026-04-29 20:35 | 45.26499 | 12.76116 | 14344 ft | 384 kts | 238° |
| 2026-04-29 20:35 | 45.24966 | 12.73016 | 13825 ft | 382 kts | 238° |
| 2026-04-29 20:35 | 45.23449 | 12.69937 | 13249 ft | 380 kts | 237° |
| 2026-04-29 20:35 | 45.21951 | 12.66900 | 12993 ft | 370 kts | 238° |
| 2026-04-29 20:36 | 45.20499 | 12.63960 | 12821 ft | 358 kts | 238° |
| 2026-04-29 20:36 | 45.19093 | 12.61114 | 12637 ft | 348 kts | 238° |
| 2026-04-29 20:36 | 45.17721 | 12.58341 | 12447 ft | 338 kts | 237° |
| 2026-04-29 20:36 | 45.16387 | 12.55646 | 12289 ft | 328 kts | 238° |
| 2026-04-29 20:37 | 45.15093 | 12.53035 | 12133 ft | 319 kts | 238° |
| 2026-04-29 20:37 | 45.14123 | 12.50302 | 11908 ft | 306 kts | 258° |
| 2026-04-29 20:37 | 45.14031 | 12.47397 | 11699 ft | 296 kts | 280° |
| 2026-04-29 20:37 | 45.14616 | 12.44620 | 11540 ft | 295 kts | 288° |
| 2026-04-29 20:38 | 45.15296 | 12.41850 | 11352 ft | 299 kts | 289° |
| 2026-04-29 20:38 | 45.15989 | 12.39093 | 11149 ft | 294 kts | 289° |
| 2026-04-29 20:38 | 45.16670 | 12.36427 | 10940 ft | 280 kts | 289° |
| 2026-04-29 20:38 | 45.17321 | 12.33904 | 10769 ft | 267 kts | 289° |
| 2026-04-29 20:39 | 45.17954 | 12.31469 | 10607 ft | 261 kts | 289° |
| 2026-04-29 20:39 | 45.18583 | 12.29058 | 10431 ft | 261 kts | 289° |
| 2026-04-29 20:39 | 45.19181 | 12.26645 | 10252 ft | 258 kts | 283° |
| 2026-04-29 20:39 | 45.19166 | 12.24130 | 10006 ft | 259 kts | 253° |
| 2026-04-29 20:40 | 45.18223 | 12.21977 | 9767 ft | 262 kts | 224° |
| 2026-04-29 20:40 | 45.16605 | 12.20795 | 9516 ft | 269 kts | 194° |
| 2026-04-29 20:40 | 45.14714 | 12.20688 | 9235 ft | 275 kts | 185° |
| 2026-04-29 20:40 | 45.12852 | 12.20086 | 8266 ft | 286 kts | 211° |
| 2026-04-29 20:41 | 45.11285 | 12.18267 | 7430 ft | 292 kts | 237° |
| 2026-04-29 20:41 | 45.10574 | 12.15758 | 7483 ft | 264 kts | 264° |
| 2026-04-29 20:41 | 45.10726 | 12.13218 | 7053 ft | 262 kts | 289° |
| 2026-04-29 20:41 | 45.11533 | 12.10861 | 6354 ft | 269 kts | 301° |
| 2026-04-29 20:42 | 45.12516 | 12.08699 | 6025 ft | 260 kts | 305° |
| 2026-04-29 20:42 | 45.13569 | 12.06675 | 5741 ft | 252 kts | 313° |
| 2026-04-29 20:42 | 45.14929 | 12.05116 | 5346 ft | 252 kts | 330° |
| 2026-04-29 20:42 | 45.16456 | 12.03858 | 4791 ft | 257 kts | 335° |
| 2026-04-29 20:43 | 45.18083 | 12.02810 | 4520 ft | 253 kts | 343° |
| 2026-04-29 20:43 | 45.19728 | 12.02194 | 4506 ft | 235 kts | 358° |
| 2026-04-29 20:43 | 45.21335 | 12.02172 | 4250 ft | 230 kts | 9° |
| 2026-04-29 20:43 | 45.22889 | 12.02578 | 3993 ft | 223 kts | 23° |
| 2026-04-29 20:44 | 45.24277 | 12.03534 | 3686 ft | 223 kts | 32° |
| 2026-04-29 20:44 | 45.25548 | 12.04697 | 3744 ft | 208 kts | 35° |
| 2026-04-29 20:44 | 45.26706 | 12.05831 | 3773 ft | 199 kts | 38° |
| 2026-04-29 20:44 | 45.27837 | 12.06918 | 3709 ft | 193 kts | 36° |
| 2026-04-29 20:45 | 45.28951 | 12.07996 | 3615 ft | 195 kts | 36° |
| 2026-04-29 20:45 | 45.30088 | 12.09051 | 3487 ft | 192 kts | 36° |
| 2026-04-29 20:45 | 45.31160 | 12.10106 | 3320 ft | 189 kts | 38° |
| 2026-04-29 20:45 | 45.32214 | 12.11202 | 3154 ft | 186 kts | 39° |
| 2026-04-29 20:46 | 45.33239 | 12.12279 | 2991 ft | 182 kts | 38° |
| 2026-04-29 20:46 | 45.34268 | 12.13354 | 2704 ft | 185 kts | 37° |
| 2026-04-29 20:46 | 45.35311 | 12.14442 | 2427 ft | 187 kts | 40° |
| 2026-04-29 20:46 | 45.36308 | 12.15638 | 2200 ft | 186 kts | 43° |
| 2026-04-29 20:47 | 45.37240 | 12.16889 | 2051 ft | 182 kts | 46° |
| 2026-04-29 20:47 | 45.38104 | 12.18152 | 2011 ft | 172 kts | 46° |
| 2026-04-29 20:47 | 45.38896 | 12.19349 | 2036 ft | 160 kts | 48° |
| 2026-04-29 20:47 | 45.39622 | 12.20486 | 2077 ft | 158 kts | 49° |
| 2026-04-29 20:48 | 45.40361 | 12.21687 | 2125 ft | 164 kts | 49° |
| 2026-04-29 20:48 | 45.41129 | 12.22889 | 2143 ft | 158 kts | 48° |
| 2026-04-29 20:48 | 45.41858 | 12.23968 | 1975 ft | 147 kts | 45° |
| 2026-04-29 20:48 | 45.42578 | 12.24957 | 1763 ft | 140 kts | 45° |
| 2026-04-29 20:49 | 45.43270 | 12.25848 | 1587 ft | 130 kts | 45° |
| 2026-04-29 20:49 | 45.43919 | 12.26710 | 1375 ft | 126 kts | 45° |
| 2026-04-29 20:49 | 45.44562 | 12.27556 | 1149 ft | 124 kts | 45° |
| 2026-04-29 20:49 | 45.45194 | 12.28366 | 934 ft | 120 kts | 41° |
| 2026-04-29 20:50 | 45.45849 | 12.29141 | 707 ft | 126 kts | 41° |
| 2026-04-29 20:50 | 45.46488 | 12.29977 | 671 ft | 121 kts | 42° |
| 2026-04-29 20:50 | 45.47100 | 12.30783 | 583 ft | 122 kts | 43° |
| 2026-04-29 20:50 | 45.47746 | 12.31598 | 479 ft | 126 kts | 43° |
| 2026-04-29 20:51 | 45.48393 | 12.32473 | 365 ft | 131 kts | 43° |
| 2026-04-29 20:51 | 45.49085 | 12.33377 | 168 ft | 136 kts | 44° |
| 2026-04-29 20:51 | 45.49764 | 12.34266 | 25 ft | 123 kts | 41° |
| 2026-04-29 20:51 | 45.50280 | 12.34907 | 15 ft | 67 kts | 40° |
| 2026-04-29 20:52 | 45.50474 | 12.35061 | 13 ft | 28 kts | 13° |
| 2026-04-29 20:52 | 45.50612 | 12.34980 | 14 ft | 22 kts | 277° |
| 2026-04-29 20:52 | 45.50579 | 12.34722 | 17 ft | 33 kts | 232° |
| 2026-04-29 20:52 | 45.50389 | 12.34471 | 23 ft | 40 kts | 221° |
| 2026-04-29 20:53 | 45.50335 | 12.34290 | 22 ft | 13 kts | 283° |
| 2026-04-29 20:53 | 45.50349 | 12.34212 | 22 ft | 2 kts | 284° |
| 2026-04-29 20:53 | 45.50352 | 12.34207 | 21 ft | 3 kts | 311° |
| 2026-04-29 20:53 | 45.50359 | 12.34187 | 19 ft | 0 kts | 292° |